sensor_id;sensor_type;location;lat;lon;timestamp;pressure;altitude;pressure_sealevel;temperature;humidity
57048;BME280;42934;54.294;18.598;2023-03-01T00:02:02;102065.22;;;1.30;78.43
57048;BME280;42934;54.294;18.598;2023-03-01T00:04:32;102062.75;;;1.35;77.96
57048;BME280;42934;54.294;18.598;2023-03-01T00:07:03;102061.09;;;1.37;77.29
57048;BME280;42934;54.294;18.598;2023-03-01T00:09:32;102070.69;;;1.41;77.81
57048;BME280;42934;54.294;18.598;2023-03-01T00:12:02;102056.94;;;1.42;77.15
57048;BME280;42934;54.294;18.598;2023-03-01T00:14:33;102046.59;;;1.44;77.62
57048;BME280;42934;54.294;18.598;2023-03-01T00:17:02;102034.44;;;1.41;77.69
57048;BME280;42934;54.294;18.598;2023-03-01T00:19:32;102037.94;;;1.42;77.32
57048;BME280;42934;54.294;18.598;2023-03-01T00:22:01;102024.94;;;1.40;77.59
57048;BME280;42934;54.294;18.598;2023-03-01T00:24:30;102028.53;;;1.45;77.67
57048;BME280;42934;54.294;18.598;2023-03-01T00:27:00;102027.75;;;1.48;77.58
57048;BME280;42934;54.294;18.598;2023-03-01T00:29:29;102026.06;;;1.50;77.42
57048;BME280;42934;54.294;18.598;2023-03-01T00:32:00;102030.34;;;1.48;77.50
57048;BME280;42934;54.294;18.598;2023-03-01T00:34:29;102032.06;;;1.47;77.77
57048;BME280;42934;54.294;18.598;2023-03-01T00:36:59;102028.69;;;1.51;78.33
57048;BME280;42934;54.294;18.598;2023-03-01T00:39:33;102030.34;;;1.49;77.83
57048;BME280;42934;54.294;18.598;2023-03-01T00:42:02;102020.06;;;1.51;78.86
57048;BME280;42934;54.294;18.598;2023-03-01T00:44:32;102026.97;;;1.52;78.58
57048;BME280;42934;54.294;18.598;2023-03-01T00:47:03;102024.47;;;1.55;78.25
57048;BME280;42934;54.294;18.598;2023-03-01T00:49:33;102018.44;;;1.54;78.29
57048;BME280;42934;54.294;18.598;2023-03-01T00:52:02;102019.38;;;1.58;78.35
57048;BME280;42934;54.294;18.598;2023-03-01T00:54:31;102013.19;;;1.53;79.00
57048;BME280;42934;54.294;18.598;2023-03-01T00:57:01;102005.34;;;1.50;78.58
57048;BME280;42934;54.294;18.598;2023-03-01T00:59:30;102009.72;;;1.51;78.97
57048;BME280;42934;54.294;18.598;2023-03-01T01:01:59;102010.53;;;1.50;79.52
57048;BME280;42934;54.294;18.598;2023-03-01T01:04:30;102019.13;;;1.47;79.54
57048;BME280;42934;54.294;18.598;2023-03-01T01:06:59;102021.72;;;1.49;79.23
57048;BME280;42934;54.294;18.598;2023-03-01T01:09:29;102027.13;;;1.58;78.85
57048;BME280;42934;54.294;18.598;2023-03-01T01:11:59;102025.41;;;1.57;78.64
57048;BME280;42934;54.294;18.598;2023-03-01T01:14:28;102025.41;;;1.58;78.82
57048;BME280;42934;54.294;18.598;2023-03-01T01:16:58;102021.16;;;1.61;79.32
57048;BME280;42934;54.294;18.598;2023-03-01T01:19:27;102022.00;;;1.59;78.74
57048;BME280;42934;54.294;18.598;2023-03-01T01:21:58;102020.22;;;1.57;79.76
57048;BME280;42934;54.294;18.598;2023-03-01T01:24:28;102016.69;;;1.53;79.38
57048;BME280;42934;54.294;18.598;2023-03-01T01:26:57;102012.44;;;1.57;79.85
57048;BME280;42934;54.294;18.598;2023-03-01T01:29:27;102011.66;;;1.59;79.53
57048;BME280;42934;54.294;18.598;2023-03-01T01:31:56;102013.38;;;1.59;79.73
57048;BME280;42934;54.294;18.598;2023-03-01T01:34:26;102021.16;;;1.61;80.00
57048;BME280;42934;54.294;18.598;2023-03-01T01:36:55;102012.56;;;1.62;80.13
57048;BME280;42934;54.294;18.598;2023-03-01T01:39:26;102015.28;;;1.66;79.18
57048;BME280;42934;54.294;18.598;2023-03-01T01:41:55;102011.81;;;1.66;79.46
57048;BME280;42934;54.294;18.598;2023-03-01T01:44:25;102004.91;;;1.66;79.73
57048;BME280;42934;54.294;18.598;2023-03-01T01:46:58;101998.06;;;1.68;80.08
57048;BME280;42934;54.294;18.598;2023-03-01T01:49:33;101990.09;;;1.61;80.37
57048;BME280;42934;54.294;18.598;2023-03-01T01:52:09;101981.63;;;1.66;79.55
57048;BME280;42934;54.294;18.598;2023-03-01T01:54:44;101978.09;;;1.63;79.82
57048;BME280;42934;54.294;18.598;2023-03-01T01:57:18;101979.75;;;1.61;80.63
57048;BME280;42934;54.294;18.598;2023-03-01T01:59:51;101978.09;;;1.64;80.06
57048;BME280;42934;54.294;18.598;2023-03-01T02:02:21;101975.56;;;1.66;80.04
57048;BME280;42934;54.294;18.598;2023-03-01T02:04:55;101976.50;;;1.68;80.17
57048;BME280;42934;54.294;18.598;2023-03-01T02:07:31;101982.53;;;1.68;80.35
57048;BME280;42934;54.294;18.598;2023-03-01T02:10:03;101979.97;;;1.70;80.40
57048;BME280;42934;54.294;18.598;2023-03-01T02:12:33;101973.94;;;1.69;80.36
57048;BME280;42934;54.294;18.598;2023-03-01T02:15:03;101966.97;;;1.67;79.93
57048;BME280;42934;54.294;18.598;2023-03-01T02:17:33;101964.28;;;1.62;79.96
57048;BME280;42934;54.294;18.598;2023-03-01T02:20:11;101968.53;;;1.60;80.64
57048;BME280;42934;54.294;18.598;2023-03-01T02:22:47;101959.97;;;1.64;80.47
57048;BME280;42934;54.294;18.598;2023-03-01T02:25:32;101966.88;;;1.62;80.20
57048;BME280;42934;54.294;18.598;2023-03-01T02:30:47;101971.03;;;1.57;80.35
57048;BME280;42934;54.294;18.598;2023-03-01T02:33:34;101971.13;;;1.60;80.15
57048;BME280;42934;54.294;18.598;2023-03-01T02:36:08;101966.59;;;1.53;81.14
57048;BME280;42934;54.294;18.598;2023-03-01T02:38:39;101969.19;;;1.53;81.07
57048;BME280;42934;54.294;18.598;2023-03-01T02:41:11;101962.88;;;1.42;82.06
57048;BME280;42934;54.294;18.598;2023-03-01T02:43:43;101959.50;;;1.44;81.80
57048;BME280;42934;54.294;18.598;2023-03-01T02:46:18;101948.16;;;1.39;81.46
57048;BME280;42934;54.294;18.598;2023-03-01T02:48:49;101950.59;;;1.34;81.87
57048;BME280;42934;54.294;18.598;2023-03-01T02:51:26;101964.38;;;1.33;82.60
57048;BME280;42934;54.294;18.598;2023-03-01T02:54:06;101963.38;;;1.27;83.30
57048;BME280;42934;54.294;18.598;2023-03-01T02:56:37;101956.25;;;1.20;83.41
57048;BME280;42934;54.294;18.598;2023-03-01T02:59:07;101952.00;;;1.22;83.25
57048;BME280;42934;54.294;18.598;2023-03-01T03:01:39;101954.69;;;1.25;83.30
57048;BME280;42934;54.294;18.598;2023-03-01T03:04:12;101951.25;;;1.26;83.39
57048;BME280;42934;54.294;18.598;2023-03-01T03:06:49;101948.56;;;1.21;84.22
57048;BME280;42934;54.294;18.598;2023-03-01T03:09:19;101944.19;;;1.20;84.43
57048;BME280;42934;54.294;18.598;2023-03-01T03:11:48;101938.84;;;1.14;84.49
57048;BME280;42934;54.294;18.598;2023-03-01T03:14:18;101931.88;;;1.11;84.86
57048;BME280;42934;54.294;18.598;2023-03-01T03:16:51;101931.16;;;1.16;85.03
57048;BME280;42934;54.294;18.598;2023-03-01T03:19:20;101933.91;;;1.22;84.60
57048;BME280;42934;54.294;18.598;2023-03-01T03:21:50;101934.75;;;1.22;84.07
57048;BME280;42934;54.294;18.598;2023-03-01T03:24:19;101932.03;;;1.16;85.18
57048;BME280;42934;54.294;18.598;2023-03-01T03:26:49;101929.47;;;1.18;85.18
57048;BME280;42934;54.294;18.598;2023-03-01T03:29:18;101930.53;;;1.24;84.54
57048;BME280;42934;54.294;18.598;2023-03-01T03:31:49;101927.78;;;1.18;84.84
57048;BME280;42934;54.294;18.598;2023-03-01T03:34:18;101931.38;;;1.25;83.84
57048;BME280;42934;54.294;18.598;2023-03-01T03:36:47;101921.03;;;1.25;84.04
57048;BME280;42934;54.294;18.598;2023-03-01T03:39:17;101912.28;;;1.20;84.07
57048;BME280;42934;54.294;18.598;2023-03-01T03:41:47;101916.56;;;1.19;84.24
57048;BME280;42934;54.294;18.598;2023-03-01T03:44:16;101918.94;;;1.11;84.94
57048;BME280;42934;54.294;18.598;2023-03-01T03:46:46;101908.59;;;1.11;84.80
57048;BME280;42934;54.294;18.598;2023-03-01T03:49:17;101915.56;;;1.14;85.53
57048;BME280;42934;54.294;18.598;2023-03-01T03:51:46;101906.94;;;1.13;85.24
57048;BME280;42934;54.294;18.598;2023-03-01T03:54:15;101905.75;;;1.01;85.58
57048;BME280;42934;54.294;18.598;2023-03-01T03:56:45;101905.91;;;1.07;85.42
57048;BME280;42934;54.294;18.598;2023-03-01T03:59:14;101910.22;;;1.06;85.51
57048;BME280;42934;54.294;18.598;2023-03-01T04:01:43;101899.03;;;1.07;85.77
57048;BME280;42934;54.294;18.598;2023-03-01T04:04:13;101909.28;;;1.04;85.83
57048;BME280;42934;54.294;18.598;2023-03-01T04:06:47;101907.66;;;1.08;85.81
57048;BME280;42934;54.294;18.598;2023-03-01T04:09:16;101904.91;;;1.02;86.01
57048;BME280;42934;54.294;18.598;2023-03-01T04:11:46;101901.28;;;0.95;86.61
57048;BME280;42934;54.294;18.598;2023-03-01T04:14:15;101899.56;;;0.96;87.13
57048;BME280;42934;54.294;18.598;2023-03-01T04:16:44;101899.72;;;1.00;86.22
57048;BME280;42934;54.294;18.598;2023-03-01T04:19:14;101900.38;;;0.93;86.65
57048;BME280;42934;54.294;18.598;2023-03-01T04:21:43;101898.72;;;0.97;86.73
57048;BME280;42934;54.294;18.598;2023-03-01T04:24:14;101900.50;;;0.98;86.89
57048;BME280;42934;54.294;18.598;2023-03-01T04:26:44;101895.25;;;0.95;86.97
57048;BME280;42934;54.294;18.598;2023-03-01T04:29:13;101900.50;;;0.98;86.66
57048;BME280;42934;54.294;18.598;2023-03-01T04:31:43;101899.44;;;0.91;86.60
57048;BME280;42934;54.294;18.598;2023-03-01T04:34:12;101893.53;;;0.95;86.36
57048;BME280;42934;54.294;18.598;2023-03-01T04:36:42;101896.91;;;0.93;86.74
57048;BME280;42934;54.294;18.598;2023-03-01T04:39:12;101890.09;;;0.96;86.70
57048;BME280;42934;54.294;18.598;2023-03-01T04:41:42;101891.91;;;0.99;86.31
57048;BME280;42934;54.294;18.598;2023-03-01T04:44:11;101902.09;;;0.93;86.30
57048;BME280;42934;54.294;18.598;2023-03-01T04:46:41;101890.03;;;0.93;86.94
57048;BME280;42934;54.294;18.598;2023-03-01T04:49:10;101896.06;;;0.94;87.02
57048;BME280;42934;54.294;18.598;2023-03-01T04:51:39;101896.16;;;0.97;86.84
57048;BME280;42934;54.294;18.598;2023-03-01T04:54:09;101888.06;;;0.84;87.46
57048;BME280;42934;54.294;18.598;2023-03-01T04:56:40;101893.22;;;0.84;87.66
57048;BME280;42934;54.294;18.598;2023-03-01T04:59:09;101896.78;;;0.88;87.43
57048;BME280;42934;54.294;18.598;2023-03-01T05:01:40;101895.91;;;0.87;86.77
57048;BME280;42934;54.294;18.598;2023-03-01T05:04:10;101891.28;;;0.76;87.90
57048;BME280;42934;54.294;18.598;2023-03-01T05:06:41;101891.44;;;0.82;87.81
57048;BME280;42934;54.294;18.598;2023-03-01T05:09:10;101890.47;;;0.77;87.31
57048;BME280;42934;54.294;18.598;2023-03-01T05:11:41;101892.84;;;0.71;87.98
57048;BME280;42934;54.294;18.598;2023-03-01T05:14:11;101892.16;;;0.76;87.60
57048;BME280;42934;54.294;18.598;2023-03-01T05:16:41;101883.44;;;0.73;87.79
57048;BME280;42934;54.294;18.598;2023-03-01T05:19:10;101895.56;;;0.74;87.75
57048;BME280;42934;54.294;18.598;2023-03-01T05:21:43;101891.16;;;0.71;88.15
57048;BME280;42934;54.294;18.598;2023-03-01T05:24:33;101893.66;;;0.68;89.13
57048;BME280;42934;54.294;18.598;2023-03-01T05:27:04;101887.81;;;0.75;87.70
57048;BME280;42934;54.294;18.598;2023-03-01T05:29:34;101885.28;;;0.77;88.00
57048;BME280;42934;54.294;18.598;2023-03-01T05:32:04;101887.88;;;0.77;87.87
57048;BME280;42934;54.294;18.598;2023-03-01T05:34:35;101887.06;;;0.79;88.16
57048;BME280;42934;54.294;18.598;2023-03-01T05:37:04;101880.16;;;0.78;87.74
57048;BME280;42934;54.294;18.598;2023-03-01T05:39:35;101887.91;;;0.78;87.44
57048;BME280;42934;54.294;18.598;2023-03-01T05:42:09;101878.31;;;0.74;88.20
57048;BME280;42934;54.294;18.598;2023-03-01T05:44:39;101889.63;;;0.78;88.31
57048;BME280;42934;54.294;18.598;2023-03-01T05:47:08;101886.09;;;0.76;88.00
57048;BME280;42934;54.294;18.598;2023-03-01T05:49:37;101887.91;;;0.78;87.67
57048;BME280;42934;54.294;18.598;2023-03-01T05:52:07;101886.97;;;0.76;88.20
57048;BME280;42934;54.294;18.598;2023-03-01T05:54:37;101877.56;;;0.78;87.41
57048;BME280;42934;54.294;18.598;2023-03-01T05:57:08;101879.19;;;0.75;87.80
57048;BME280;42934;54.294;18.598;2023-03-01T05:59:38;101882.66;;;0.75;88.19
57048;BME280;42934;54.294;18.598;2023-03-01T06:02:07;101874.81;;;0.72;88.44
57048;BME280;42934;54.294;18.598;2023-03-01T06:04:36;101874.03;;;0.75;88.28
57048;BME280;42934;54.294;18.598;2023-03-01T06:07:06;101877.63;;;0.81;88.06
57048;BME280;42934;54.294;18.598;2023-03-01T06:09:35;101878.50;;;0.80;87.56
57048;BME280;42934;54.294;18.598;2023-03-01T06:12:06;101891.44;;;0.82;87.95
57048;BME280;42934;54.294;18.598;2023-03-01T06:14:35;101893.31;;;0.87;87.35
57048;BME280;42934;54.294;18.598;2023-03-01T06:17:05;101895.09;;;0.88;87.94
57048;BME280;42934;54.294;18.598;2023-03-01T06:19:35;101899.44;;;0.91;87.83
57048;BME280;42934;54.294;18.598;2023-03-01T06:22:04;101897.94;;;0.99;86.76
57048;BME280;42934;54.294;18.598;2023-03-01T06:24:33;101896.22;;;1.00;87.41
57048;BME280;42934;54.294;18.598;2023-03-01T06:27:03;101899.72;;;1.00;87.32
57048;BME280;42934;54.294;18.598;2023-03-01T06:29:34;101900.50;;;0.98;87.50
57048;BME280;42934;54.294;18.598;2023-03-01T06:32:03;101906.63;;;1.01;86.68
57048;BME280;42934;54.294;18.598;2023-03-01T06:34:32;101906.66;;;1.03;87.20
57048;BME280;42934;54.294;18.598;2023-03-01T06:37:02;101901.41;;;1.00;87.83
57048;BME280;42934;54.294;18.598;2023-03-01T06:39:33;101913.69;;;1.07;86.77
57048;BME280;42934;54.294;18.598;2023-03-01T06:42:03;101906.16;;;1.16;87.38
57048;BME280;42934;54.294;18.598;2023-03-01T06:44:33;101910.53;;;1.19;86.36
57048;BME280;42934;54.294;18.598;2023-03-01T06:47:03;101906.38;;;1.24;86.69
57048;BME280;42934;54.294;18.598;2023-03-01T06:49:33;101916.88;;;1.30;86.49
57048;BME280;42934;54.294;18.598;2023-03-01T06:52:02;101911.84;;;1.36;86.40
57048;BME280;42934;54.294;18.598;2023-03-01T06:54:31;101915.47;;;1.43;86.86
57048;BME280;42934;54.294;18.598;2023-03-01T06:57:01;101923.38;;;1.49;86.24
57048;BME280;42934;54.294;18.598;2023-03-01T06:59:30;101911.28;;;1.49;86.59
57048;BME280;42934;54.294;18.598;2023-03-01T07:02:01;101924.38;;;1.54;86.47
57048;BME280;42934;54.294;18.598;2023-03-01T07:04:30;101925.19;;;1.53;85.94
57048;BME280;42934;54.294;18.598;2023-03-01T07:07:00;101917.47;;;1.54;86.30
57048;BME280;42934;54.294;18.598;2023-03-01T07:09:30;101914.94;;;1.56;86.32
57048;BME280;42934;54.294;18.598;2023-03-01T07:11:59;101913.22;;;1.56;85.93
57048;BME280;42934;54.294;18.598;2023-03-01T07:14:29;101907.13;;;1.54;85.84
57048;BME280;42934;54.294;18.598;2023-03-01T07:16:58;101902.88;;;1.58;85.83
57048;BME280;42934;54.294;18.598;2023-03-01T07:19:29;101919.44;;;1.65;86.60
57048;BME280;42934;54.294;18.598;2023-03-01T07:21:58;101924.78;;;1.71;86.46
57048;BME280;42934;54.294;18.598;2023-03-01T07:24:27;101924.00;;;1.75;86.01
57048;BME280;42934;54.294;18.598;2023-03-01T07:26:57;101925.91;;;1.82;85.77
57048;BME280;42934;54.294;18.598;2023-03-01T07:29:26;101931.19;;;1.87;86.49
57048;BME280;42934;54.294;18.598;2023-03-01T07:31:56;101938.31;;;1.97;86.20
57048;BME280;42934;54.294;18.598;2023-03-01T07:34:27;101939.38;;;2.03;85.63
57048;BME280;42934;54.294;18.598;2023-03-01T07:36:57;101941.09;;;2.04;85.29
57048;BME280;42934;54.294;18.598;2023-03-01T07:39:26;101933.44;;;2.09;85.43
57048;BME280;42934;54.294;18.598;2023-03-01T07:41:56;101939.56;;;2.13;85.26
57048;BME280;42934;54.294;18.598;2023-03-01T07:44:25;101939.72;;;2.19;85.33
57048;BME280;42934;54.294;18.598;2023-03-01T07:46:56;101936.38;;;2.24;85.12
57048;BME280;42934;54.294;18.598;2023-03-01T07:49:26;101936.44;;;2.27;84.60
57048;BME280;42934;54.294;18.598;2023-03-01T07:51:56;101935.72;;;2.35;85.03
57048;BME280;42934;54.294;18.598;2023-03-01T07:54:26;101940.22;;;2.42;84.52
57048;BME280;42934;54.294;18.598;2023-03-01T07:56:56;101940.34;;;2.48;84.18
57048;BME280;42934;54.294;18.598;2023-03-01T07:59:26;101939.47;;;2.47;83.98
57048;BME280;42934;54.294;18.598;2023-03-01T08:01:57;101934.38;;;2.52;84.34
57048;BME280;42934;54.294;18.598;2023-03-01T08:04:26;101928.44;;;2.58;83.70
57048;BME280;42934;54.294;18.598;2023-03-01T08:06:57;101917.16;;;2.56;83.43
57048;BME280;42934;54.294;18.598;2023-03-01T08:09:27;101908.63;;;2.61;83.45
57048;BME280;42934;54.294;18.598;2023-03-01T08:11:57;101919.13;;;2.67;83.34
57048;BME280;42934;54.294;18.598;2023-03-01T08:14:27;101909.66;;;2.69;83.12
57048;BME280;42934;54.294;18.598;2023-03-01T08:16:57;101906.28;;;2.73;82.99
57048;BME280;42934;54.294;18.598;2023-03-01T08:19:26;101902.09;;;2.80;83.09
57048;BME280;42934;54.294;18.598;2023-03-01T08:21:57;101912.47;;;2.80;82.86
57048;BME280;42934;54.294;18.598;2023-03-01T08:24:27;101914.28;;;2.84;82.54
57048;BME280;42934;54.294;18.598;2023-03-01T08:26:57;101920.38;;;2.88;82.61
57048;BME280;42934;54.294;18.598;2023-03-01T08:29:26;101922.22;;;2.93;82.40
57048;BME280;42934;54.294;18.598;2023-03-01T08:31:56;101924.13;;;3.02;82.17
57048;BME280;42934;54.294;18.598;2023-03-01T08:34:25;101926.03;;;3.11;81.84
57048;BME280;42934;54.294;18.598;2023-03-01T08:36:56;101924.41;;;3.17;81.42
57048;BME280;42934;54.294;18.598;2023-03-01T08:39:25;101921.19;;;3.31;82.05
57048;BME280;42934;54.294;18.598;2023-03-01T08:41:55;101929.22;;;3.45;81.50
57048;BME280;42934;54.294;18.598;2023-03-01T08:44:24;101929.44;;;3.58;81.51
57048;BME280;42934;54.294;18.598;2023-03-01T08:46:54;101922.69;;;3.70;81.45
57048;BME280;42934;54.294;18.598;2023-03-01T08:49:23;101923.72;;;3.79;81.05
57048;BME280;42934;54.294;18.598;2023-03-01T08:51:53;101920.41;;;3.90;80.81
57048;BME280;42934;54.294;18.598;2023-03-01T08:54:23;101913.59;;;3.95;80.76
57048;BME280;42934;54.294;18.598;2023-03-01T08:56:53;101912.94;;;4.09;80.25
57048;BME280;42934;54.294;18.598;2023-03-01T08:59:22;101914.78;;;4.18;80.07
57048;BME280;42934;54.294;18.598;2023-03-01T09:01:51;101911.44;;;4.27;80.21
57048;BME280;42934;54.294;18.598;2023-03-01T09:04:21;101915.84;;;4.34;79.74
57048;BME280;42934;54.294;18.598;2023-03-01T09:06:50;101917.69;;;4.41;79.48
57048;BME280;42934;54.294;18.598;2023-03-01T09:09:19;101916.91;;;4.48;79.84
57048;BME280;42934;54.294;18.598;2023-03-01T09:11:50;101915.28;;;4.58;79.07
57048;BME280;42934;54.294;18.598;2023-03-01T09:14:19;101924.06;;;4.65;78.52
57048;BME280;42934;54.294;18.598;2023-03-01T09:16:49;101928.47;;;4.72;78.49
57048;BME280;42934;54.294;18.598;2023-03-01T09:19:18;101925.84;;;4.70;77.13
57048;BME280;42934;54.294;18.598;2023-03-01T09:21:47;101925.09;;;4.81;77.49
57048;BME280;42934;54.294;18.598;2023-03-01T09:24:22;101920.88;;;4.90;77.40
57048;BME280;42934;54.294;18.598;2023-03-01T09:26:55;101925.28;;;4.94;76.56
57048;BME280;42934;54.294;18.598;2023-03-01T09:29:25;101916.66;;;5.01;76.92
57048;BME280;42934;54.294;18.598;2023-03-01T09:31:55;101921.06;;;5.07;76.28
57048;BME280;42934;54.294;18.598;2023-03-01T09:34:24;101926.31;;;5.13;76.17
57048;BME280;42934;54.294;18.598;2023-03-01T09:36:53;101922.97;;;5.23;76.71
57048;BME280;42934;54.294;18.598;2023-03-01T09:39:23;101928.28;;;5.33;76.09
57048;BME280;42934;54.294;18.598;2023-03-01T09:41:59;101929.16;;;5.38;76.11
57048;BME280;42934;54.294;18.598;2023-03-01T09:44:36;101922.28;;;5.41;74.37
57048;BME280;42934;54.294;18.598;2023-03-01T09:47:12;101919.75;;;5.52;75.41
57048;BME280;42934;54.294;18.598;2023-03-01T09:49:52;101917.19;;;5.58;75.20
57048;BME280;42934;54.294;18.598;2023-03-01T09:52:33;101918.13;;;5.66;74.42
57048;BME280;42934;54.294;18.598;2023-03-01T09:55:10;101914.72;;;5.75;74.29
57048;BME280;42934;54.294;18.598;2023-03-01T09:57:47;101916.53;;;5.84;74.68
57048;BME280;42934;54.294;18.598;2023-03-01T10:00:26;101917.50;;;5.97;74.72
57048;BME280;42934;54.294;18.598;2023-03-01T10:03:03;101914.09;;;6.05;74.06
57048;BME280;42934;54.294;18.598;2023-03-01T10:05:44;101919.38;;;6.16;73.96
57048;BME280;42934;54.294;18.598;2023-03-01T10:08:29;101921.13;;;6.23;72.18
57048;BME280;42934;54.294;18.598;2023-03-01T10:11:02;101923.84;;;6.37;73.25
57048;BME280;42934;54.294;18.598;2023-03-01T10:13:41;101925.63;;;6.49;72.66
57048;BME280;42934;54.294;18.598;2023-03-01T10:16:16;101924.81;;;6.60;72.84
57048;BME280;42934;54.294;18.598;2023-03-01T10:18:53;101916.19;;;6.74;72.43
57048;BME280;42934;54.294;18.598;2023-03-01T10:21:25;101917.06;;;6.88;72.82
57048;BME280;42934;54.294;18.598;2023-03-01T10:23:58;101914.47;;;6.93;71.01
57048;BME280;42934;54.294;18.598;2023-03-01T10:26:43;101909.28;;;7.03;70.34
57048;BME280;42934;54.294;18.598;2023-03-01T10:29:15;101917.13;;;7.14;70.68
57048;BME280;42934;54.294;18.598;2023-03-01T10:31:47;101911.94;;;7.25;70.92
57048;BME280;42934;54.294;18.598;2023-03-01T10:34:20;101916.31;;;7.37;70.75
57048;BME280;42934;54.294;18.598;2023-03-01T10:36:52;101911.09;;;7.50;70.26
57048;BME280;42934;54.294;18.598;2023-03-01T10:39:26;101916.31;;;7.57;69.84
57048;BME280;42934;54.294;18.598;2023-03-01T10:41:58;101909.34;;;7.68;69.95
57048;BME280;42934;54.294;18.598;2023-03-01T10:44:48;101911.97;;;7.74;69.07
57048;BME280;42934;54.294;18.598;2023-03-01T10:47:21;101911.94;;;7.82;69.26
57048;BME280;42934;54.294;18.598;2023-03-01T10:49:58;101906.69;;;7.94;68.16
57048;BME280;42934;54.294;18.598;2023-03-01T10:52:31;101911.03;;;8.04;68.04
57048;BME280;42934;54.294;18.598;2023-03-01T10:55:04;101908.41;;;8.09;68.34
57048;BME280;42934;54.294;18.598;2023-03-01T10:58:07;101901.41;;;8.22;68.60
57048;BME280;42934;54.294;18.598;2023-03-01T11:00:49;101906.59;;;8.34;68.01
57048;BME280;42934;54.294;18.598;2023-03-01T11:03:22;101897.84;;;8.44;67.01
57048;BME280;42934;54.294;18.598;2023-03-01T11:06:04;101905.69;;;8.59;66.71
57048;BME280;42934;54.294;18.598;2023-03-01T11:08:37;101903.81;;;8.81;66.70
57048;BME280;42934;54.294;18.598;2023-03-01T11:11:23;101900.22;;;9.01;65.84
57048;BME280;42934;54.294;18.598;2023-03-01T11:13:55;101904.41;;;9.28;65.88
57048;BME280;42934;54.294;18.598;2023-03-01T11:16:33;101900.59;;;9.64;64.97
57048;BME280;42934;54.294;18.598;2023-03-01T11:19:18;101893.72;;;10.40;63.56
57048;BME280;42934;54.294;18.598;2023-03-01T11:21:55;101889.75;;;11.37;60.97
57048;BME280;42934;54.294;18.598;2023-03-01T11:27:38;101883.41;;;13.24;55.46
57048;BME280;42934;54.294;18.598;2023-03-01T11:30:18;101883.25;;;12.93;55.34
57048;BME280;42934;54.294;18.598;2023-03-01T11:33:03;101875.53;;;12.45;53.78
57048;BME280;42934;54.294;18.598;2023-03-01T11:35:35;101875.19;;;12.18;55.74
57048;BME280;42934;54.294;18.598;2023-03-01T11:38:17;101867.34;;;12.14;55.72
57048;BME280;42934;54.294;18.598;2023-03-01T11:40:52;101868.09;;;12.20;56.05
57048;BME280;42934;54.294;18.598;2023-03-01T11:43:33;101868.03;;;12.25;54.38
57048;BME280;42934;54.294;18.598;2023-03-01T11:49:40;101871.56;;;12.24;52.88
57048;BME280;42934;54.294;18.598;2023-03-01T11:52:20;101864.03;;;12.04;52.96
57048;BME280;42934;54.294;18.598;2023-03-01T11:55:12;101874.88;;;11.87;51.87
57048;BME280;42934;54.294;18.598;2023-03-01T11:57:55;101868.94;;;12.24;53.27
57048;BME280;42934;54.294;18.598;2023-03-01T12:00:43;101868.81;;;12.30;52.90
57048;BME280;42934;54.294;18.598;2023-03-01T12:03:28;101869.56;;;12.35;53.56
57048;BME280;42934;54.294;18.598;2023-03-01T12:06:30;101879.88;;;12.47;52.95
57048;BME280;42934;54.294;18.598;2023-03-01T12:09:17;101876.16;;;12.56;52.45
57048;BME280;42934;54.294;18.598;2023-03-01T12:12:30;101868.69;;;12.35;52.69
57048;BME280;42934;54.294;18.598;2023-03-01T12:21:14;101872.56;;;12.60;50.91
57048;BME280;42934;54.294;18.598;2023-03-01T12:24:22;101867.56;;;12.48;51.16
57048;BME280;42934;54.294;18.598;2023-03-01T12:27:14;101872.91;;;12.84;52.07
57048;BME280;42934;54.294;18.598;2023-03-01T12:29:52;101867.88;;;13.12;51.12
57048;BME280;42934;54.294;18.598;2023-03-01T12:32:41;101862.19;;;13.30;50.43
57048;BME280;42934;54.294;18.598;2023-03-01T12:35:52;101865.31;;;13.46;50.13
57048;BME280;42934;54.294;18.598;2023-03-01T12:38:33;101856.91;;;13.64;50.38
57048;BME280;42934;54.294;18.598;2023-03-01T12:41:21;101861.81;;;13.44;49.93
57048;BME280;42934;54.294;18.598;2023-03-01T12:44:04;101851.75;;;13.26;50.29
57048;BME280;42934;54.294;18.598;2023-03-01T12:46:50;101857.97;;;13.22;50.94
57048;BME280;42934;54.294;18.598;2023-03-01T12:49:25;101854.22;;;12.94;48.93
57048;BME280;42934;54.294;18.598;2023-03-01T12:51:58;101849.75;;;12.98;51.12
57048;BME280;42934;54.294;18.598;2023-03-01T12:54:30;101851.06;;;12.79;50.13
57048;BME280;42934;54.294;18.598;2023-03-01T12:57:06;101854.84;;;12.67;51.26
57048;BME280;42934;54.294;18.598;2023-03-01T12:59:42;101856.09;;;12.50;50.52
57048;BME280;42934;54.294;18.598;2023-03-01T13:02:18;101860.66;;;12.42;51.63
57048;BME280;42934;54.294;18.598;2023-03-01T13:05:00;101850.38;;;12.30;51.85
57048;BME280;42934;54.294;18.598;2023-03-01T13:07:41;101852.28;;;12.22;51.65
57048;BME280;42934;54.294;18.598;2023-03-01T13:10:22;101845.41;;;12.15;52.21
57048;BME280;42934;54.294;18.598;2023-03-01T13:13:18;101848.97;;;12.12;51.83
57048;BME280;42934;54.294;18.598;2023-03-01T13:15:48;101833.31;;;12.06;52.02
57048;BME280;42934;54.294;18.598;2023-03-01T13:18:32;101836.00;;;12.01;52.35
57048;BME280;42934;54.294;18.598;2023-03-01T13:21:03;101833.56;;;11.92;52.27
57048;BME280;42934;54.294;18.598;2023-03-01T13:23:36;101834.56;;;11.85;52.54
57048;BME280;42934;54.294;18.598;2023-03-01T13:26:14;101837.19;;;11.35;52.38
57048;BME280;42934;54.294;18.598;2023-03-01T13:28:51;101832.75;;;11.37;53.11
57048;BME280;42934;54.294;18.598;2023-03-01T13:34:52;101839.69;;;10.87;53.96
57048;BME280;42934;54.294;18.598;2023-03-01T13:37:25;101841.78;;;10.65;53.78